Time;durP1;ratioP1;P1;durP2;ratioP2;P2;SDS_P1;SDS_P2;PMS_P1;PMS_P2;Temp;Humidity;BMP_temperature;BMP_pressure;BME280_temperature;BME280_humidity;BME280_pressure;Samples;Min_cycle;Max_cycle;Signal;HPM_P1;HPM_P2
2023/12/29 00:02:10;;;;;;;10.57;3.50;;;11.30;99.90;;;;;;5053381;28;20609;-71
2023/12/29 00:04:35;;;;;;;6.50;3.50;;;11.30;99.90;;;;;;5037004;28;20199;-72
2023/12/29 00:07:01;;;;;;;3.90;3.17;;;11.30;99.90;;;;;;5034700;28;20548;-71
2023/12/29 00:09:27;;;;;;;4.10;3.30;;;11.30;99.90;;;;;;5033291;28;20175;-72
2023/12/29 00:11:54;;;;;;;7.10;3.17;;;11.30;99.90;;;;;;5051638;28;20182;-72
2023/12/29 00:14:20;;;;;;;5.17;3.30;;;11.30;99.90;;;;;;5053232;28;20179;-71
2023/12/29 00:16:45;;;;;;;4.70;3.57;;;11.30;99.90;;;;;;5042618;28;20203;-71
2023/12/29 00:19:12;;;;;;;5.33;3.53;;;11.30;99.90;;;;;;5033323;28;20168;-72
2023/12/29 00:21:38;;;;;;;5.47;3.20;;;11.30;99.90;;;;;;5033081;28;20191;-72
2023/12/29 00:24:04;;;;;;;7.03;3.80;;;11.30;99.90;;;;;;5033090;28;20175;-71
2023/12/29 00:26:30;;;;;;;8.77;3.73;;;11.30;99.90;;;;;;5032778;28;20199;-71
2023/12/29 00:28:56;;;;;;;7.27;3.70;;;11.30;99.90;;;;;;5033183;28;20241;-71
2023/12/29 00:31:21;;;;;;;8.47;3.33;;;11.30;99.90;;;;;;5042023;28;20190;-71
2023/12/29 00:33:47;;;;;;;4.70;3.37;;;11.30;99.90;;;;;;5052518;28;20285;-72
2023/12/29 00:36:17;;;;;;;7.23;3.17;;;11.30;99.90;;;;;;5052535;28;20199;-71
2023/12/29 00:38:42;;;;;;;4.53;3.03;;;11.30;99.90;;;;;;5052868;28;20170;-71
2023/12/29 00:41:09;;;;;;;4.67;3.20;;;11.30;99.90;;;;;;5052638;28;20205;-71
2023/12/29 00:43:35;;;;;;;6.37;3.47;;;11.30;99.90;;;;;;5049366;28;20180;-71
2023/12/29 00:46:08;;;;;;;4.30;3.43;;;11.30;99.90;;;;;;5032360;28;20286;-71
2023/12/29 00:48:34;;;;;;;4.57;3.00;;;11.30;99.90;;;;;;5032488;28;20176;-72
2023/12/29 00:51:03;;;;;;;4.17;3.77;;;11.30;99.90;;;;;;5032495;28;20190;-71
2023/12/29 00:53:30;;;;;;;3.23;2.90;;;11.30;99.90;;;;;;5033396;28;20710;-71
2023/12/29 00:55:56;;;;;;;3.80;3.40;;;11.30;99.90;;;;;;5032307;28;20195;-71
2023/12/29 00:58:22;;;;;;;6.90;2.93;;;11.30;99.90;;;;;;5032315;28;20269;-71
2023/12/29 01:00:47;;;;;;;5.47;3.50;;;11.30;99.90;;;;;;5032382;28;20567;-72
2023/12/29 01:03:13;;;;;;;7.20;3.20;;;11.30;99.90;;;;;;5032213;28;20579;-71
2023/12/29 01:05:39;;;;;;;3.13;2.80;;;11.30;99.90;;;;;;5031861;28;20727;-71
2023/12/29 01:08:05;;;;;;;4.57;4.07;;;11.30;99.90;;;;;;5032371;28;20179;-70
2023/12/29 01:10:30;;;;;;;3.53;3.23;;;11.30;99.90;;;;;;5032363;28;20379;-72
2023/12/29 01:12:56;;;;;;;5.17;3.63;;;11.30;99.90;;;;;;5048548;28;20277;-70
2023/12/29 01:15:21;;;;;;;8.70;3.80;;;11.30;99.90;;;;;;5051442;28;20202;-72
2023/12/29 01:17:47;;;;;;;5.70;3.27;;;11.30;99.90;;;;;;5033810;28;20218;-70
2023/12/29 01:20:13;;;;;;;5.10;3.63;;;11.30;99.90;;;;;;5051891;28;20642;-71
2023/12/29 01:22:38;;;;;;;8.33;4.07;;;11.20;99.90;;;;;;5051683;28;20191;-70
2023/12/29 01:25:04;;;;;;;6.97;4.43;;;11.20;99.90;;;;;;5051559;28;20202;-70
2023/12/29 01:27:30;;;;;;;8.63;3.70;;;11.20;99.90;;;;;;5036487;28;20195;-70
2023/12/29 01:29:55;;;;;;;7.33;3.67;;;11.20;99.90;;;;;;5032537;28;20210;-70
2023/12/29 01:32:22;;;;;;;5.73;3.70;;;11.20;99.90;;;;;;5032506;28;20575;-70
2023/12/29 01:34:47;;;;;;;5.47;3.97;;;11.20;99.90;;;;;;5050822;28;20210;-72
2023/12/29 01:37:13;;;;;;;5.93;3.40;;;11.20;99.90;;;;;;5051603;28;20280;-71
2023/12/29 01:39:40;;;;;;;6.47;3.60;;;11.20;99.90;;;;;;5042729;28;20265;-71
2023/12/29 01:42:05;;;;;;;3.80;3.40;;;11.20;99.90;;;;;;5031636;28;20174;-71
2023/12/29 01:44:31;;;;;;;7.83;4.00;;;11.20;99.90;;;;;;5031627;28;21089;-71
2023/12/29 01:47:00;;;;;;;8.87;3.80;;;11.20;99.90;;;;;;5031362;28;20187;-71
2023/12/29 01:49:26;;;;;;;5.97;3.70;;;11.20;99.90;;;;;;5031766;28;20724;-71
2023/12/29 01:51:54;;;;;;;5.97;4.97;;;11.20;99.90;;;;;;5031684;28;20175;-70
2023/12/29 01:54:22;;;;;;;8.57;4.70;;;11.20;99.90;;;;;;5038820;28;20210;-71
2023/12/29 01:56:50;;;;;;;10.87;3.80;;;11.20;99.90;;;;;;5051166;28;20288;-71
2023/12/29 01:59:16;;;;;;;7.57;3.97;;;11.20;99.90;;;;;;5051315;28;20181;-70
2023/12/29 02:01:43;;;;;;;6.80;3.77;;;11.20;99.90;;;;;;5050562;28;20646;-70
2023/12/29 02:04:12;;;;;;;4.37;3.50;;;11.10;99.90;;;;;;5033880;28;20573;-70
2023/12/29 02:06:39;;;;;;;11.07;3.40;;;11.10;99.90;;;;;;5033260;28;20281;-70
2023/12/29 02:09:04;;;;;;;4.17;3.10;;;11.10;99.90;;;;;;5051314;28;20562;-71
2023/12/29 02:11:31;;;;;;;5.90;3.20;;;11.10;99.90;;;;;;5033441;28;20183;-71
2023/12/29 02:13:57;;;;;;;6.13;3.23;;;11.10;99.90;;;;;;5031344;28;20180;-71
2023/12/29 02:16:53;;;;;;;4.83;4.00;;;11.10;99.90;;;;;;5030794;28;20576;-70
2023/12/29 02:19:27;;;;;;;7.80;3.50;;;11.10;99.90;;;;;;5031141;28;20195;-71
2023/12/29 02:21:53;;;;;;;7.53;3.60;;;11.10;99.90;;;;;;5030843;28;20183;-71
2023/12/29 02:24:18;;;;;;;11.87;3.73;;;11.10;99.90;;;;;;5031721;28;20271;-71
2023/12/29 02:26:50;;;;;;;7.47;4.73;;;11.10;99.90;;;;;;5050798;28;20174;-71
2023/12/29 02:29:19;;;;;;;3.93;3.40;;;11.10;99.90;;;;;;5051057;28;20175;-71
2023/12/29 02:31:50;;;;;;;10.27;3.73;;;11.10;99.90;;;;;;5050791;28;20198;-72
2023/12/29 02:34:19;;;;;;;8.50;4.37;;;11.10;99.90;;;;;;5049366;28;20539;-71
2023/12/29 02:36:46;;;;;;;5.60;3.83;;;11.00;99.90;;;;;;5032588;28;20244;-71
2023/12/29 02:39:12;;;;;;;5.20;3.57;;;10.80;99.90;;;;;;5050784;28;20212;-71
2023/12/29 02:41:38;;;;;;;6.90;3.50;;;10.80;99.90;;;;;;5050886;28;20174;-72
2023/12/29 02:44:04;;;;;;;8.77;6.77;;;10.70;99.90;;;;;;5039641;28;20294;-71
2023/12/29 02:46:30;;;;;;;9.10;4.80;;;10.60;99.90;;;;;;5030521;28;20619;-71
2023/12/29 02:48:55;;;;;;;11.70;4.83;;;10.60;99.90;;;;;;5038227;28;20179;-71
2023/12/29 02:51:21;;;;;;;10.50;4.20;;;10.60;99.90;;;;;;5051256;28;20167;-71
2023/12/29 02:53:48;;;;;;;7.60;3.80;;;10.50;99.90;;;;;;5054531;28;20174;-72
2023/12/29 02:56:14;;;;;;;7.63;3.73;;;10.40;99.90;;;;;;5051079;28;20541;-72
2023/12/29 02:58:40;;;;;;;4.43;3.83;;;10.30;99.90;;;;;;5050785;28;20178;-72
2023/12/29 03:01:05;;;;;;;6.70;3.80;;;10.30;99.90;;;;;;5049113;28;20702;-72
2023/12/29 03:03:31;;;;;;;5.00;3.77;;;10.30;99.90;;;;;;5050383;28;20194;-72
2023/12/29 03:05:56;;;;;;;5.87;3.57;;;10.30;99.90;;;;;;5050249;28;20190;-72
2023/12/29 03:08:22;;;;;;;7.83;3.87;;;10.30;99.90;;;;;;5050599;28;20546;-71
2023/12/29 03:10:48;;;;;;;10.17;4.50;;;10.40;99.90;;;;;;5050699;28;20179;-72
2023/12/29 03:13:13;;;;;;;5.37;3.50;;;10.40;99.90;;;;;;5052504;28;20178;-73
2023/12/29 03:15:39;;;;;;;12.97;3.50;;;10.50;99.90;;;;;;5052355;28;20195;-72
2023/12/29 03:18:04;;;;;;;7.00;3.60;;;10.60;99.90;;;;;;5034456;28;20219;-72
2023/12/29 03:20:30;;;;;;;7.37;4.20;;;10.60;99.90;;;;;;5016514;28;20209;-72
2023/12/29 03:22:56;;;;;;;7.67;3.80;;;10.70;99.90;;;;;;5034162;28;20191;-71
2023/12/29 03:25:21;;;;;;;5.37;4.00;;;10.70;99.90;;;;;;5033890;28;20191;-71
2023/12/29 03:27:47;;;;;;;5.77;3.80;;;10.80;99.90;;;;;;5034299;28;20536;-71
2023/12/29 03:30:13;;;;;;;8.00;3.83;;;10.90;99.90;;;;;;5048531;28;20661;-71
2023/12/29 03:32:38;;;;;;;9.33;4.30;;;10.90;99.90;;;;;;5053907;28;20186;-71
2023/12/29 03:35:04;;;;;;;7.00;4.63;;;10.90;99.90;;;;;;5053749;28;20294;-72
2023/12/29 03:37:30;;;;;;;8.73;4.43;;;10.90;99.90;;;;;;5053981;28;20575;-72
2023/12/29 03:39:55;;;;;;;11.50;3.90;;;11.00;99.90;;;;;;5053892;28;20258;-72
2023/12/29 03:42:21;;;;;;;12.70;4.60;;;11.00;99.90;;;;;;5054169;28;20534;-71
2023/12/29 03:44:47;;;;;;;6.13;3.70;;;11.00;99.90;;;;;;5040768;28;20334;-72
2023/12/29 03:47:12;;;;;;;5.43;3.70;;;11.00;99.90;;;;;;5033818;28;20180;-71
2023/12/29 03:49:38;;;;;;;6.03;4.00;;;11.00;99.90;;;;;;5034035;28;20183;-71
2023/12/29 03:52:03;;;;;;;8.13;3.50;;;11.00;99.90;;;;;;5033780;28;20716;-72
2023/12/29 03:54:29;;;;;;;9.30;4.27;;;10.90;99.90;;;;;;5033510;28;20270;-71
2023/12/29 03:56:55;;;;;;;5.97;3.50;;;10.90;99.90;;;;;;5039565;28;20703;-72
2023/12/29 03:59:20;;;;;;;8.37;3.97;;;10.90;99.90;;;;;;5035504;28;20178;-71
2023/12/29 04:01:46;;;;;;;5.93;3.87;;;10.80;99.90;;;;;;5053609;28;20174;-72
2023/12/29 04:04:11;;;;;;;5.90;3.33;;;10.80;99.90;;;;;;5053275;28;20656;-73
2023/12/29 04:06:37;;;;;;;4.83;3.87;;;10.80;99.90;;;;;;5033319;28;20560;-71
2023/12/29 04:09:03;;;;;;;8.87;3.73;;;10.80;99.90;;;;;;5033404;28;20176;-72
2023/12/29 04:11:28;;;;;;;7.03;4.27;;;10.80;99.90;;;;;;5033447;28;20186;-71
2023/12/29 04:13:54;;;;;;;7.70;4.33;;;10.90;99.90;;;;;;5033572;28;20266;-72
2023/12/29 04:16:20;;;;;;;4.73;4.20;;;10.90;99.90;;;;;;5033778;28;20207;-72
2023/12/29 04:18:45;;;;;;;4.17;3.77;;;10.90;99.90;;;;;;5034335;28;20171;-71
2023/12/29 04:21:15;;;;;;;8.57;3.87;;;10.90;99.90;;;;;;5033502;28;20192;-71
2023/12/29 04:23:41;;;;;;;7.93;3.70;;;10.90;99.90;;;;;;5032744;28;20624;-72
2023/12/29 04:26:07;;;;;;;7.13;3.80;;;10.90;99.90;;;;;;5050828;28;20195;-72
2023/12/29 04:28:33;;;;;;;4.17;3.73;;;11.00;99.90;;;;;;5052783;28;20205;-72
2023/12/29 04:30:58;;;;;;;8.57;3.53;;;11.00;99.90;;;;;;5053014;28;20202;-72
2023/12/29 04:33:24;;;;;;;8.43;4.20;;;11.00;99.90;;;;;;5045641;28;20184;-72
2023/12/29 04:35:51;;;;;;;9.57;4.03;;;11.00;99.90;;;;;;5032309;28;20203;-71
2023/12/29 04:38:19;;;;;;;4.50;3.67;;;11.00;99.90;;;;;;5031831;28;20493;-71
2023/12/29 04:40:44;;;;;;;5.40;3.50;;;11.00;99.90;;;;;;5032532;28;20178;-72
2023/12/29 04:43:10;;;;;;;5.53;3.33;;;11.10;99.90;;;;;;5032723;28;20505;-73
2023/12/29 04:45:35;;;;;;;11.73;4.27;;;11.10;99.90;;;;;;5014642;28;20198;-72
2023/12/29 04:48:01;;;;;;;6.23;3.57;;;11.10;99.90;;;;;;5033057;28;20580;-72
2023/12/29 04:50:27;;;;;;;5.50;3.20;;;11.10;99.90;;;;;;5032781;28;20200;-73
2023/12/29 04:52:52;;;;;;;6.77;3.40;;;11.10;99.90;;;;;;5033928;28;20577;-72
2023/12/29 04:55:18;;;;;;;7.17;4.10;;;11.10;99.90;;;;;;5032356;28;20203;-72
2023/12/29 04:57:43;;;;;;;6.10;3.27;;;11.00;99.90;;;;;;5032644;28;20208;-72
2023/12/29 05:00:10;;;;;;;3.70;3.40;;;11.00;99.90;;;;;;5032787;28;20176;-72
2023/12/29 05:02:35;;;;;;;5.17;3.90;;;10.90;99.90;;;;;;5032344;28;20183;-71
2023/12/29 05:05:01;;;;;;;3.80;3.03;;;10.80;99.90;;;;;;5032363;28;20609;-73
2023/12/29 05:07:27;;;;;;;3.73;3.30;;;10.70;99.90;;;;;;5041543;28;20300;-72
2023/12/29 05:09:52;;;;;;;6.57;3.30;;;10.70;99.90;;;;;;5052404;28;20210;-72
2023/12/29 05:12:18;;;;;;;6.20;3.50;;;10.60;99.90;;;;;;5052320;28;20193;-72
2023/12/29 05:14:43;;;;;;;9.27;3.43;;;10.60;99.90;;;;;;5051873;28;20207;-72
2023/12/29 05:17:09;;;;;;;6.40;3.77;;;10.60;99.90;;;;;;5051953;28;20214;-72
2023/12/29 05:19:35;;;;;;;8.90;3.97;;;10.60;99.90;;;;;;5048658;28;20607;-72
2023/12/29 05:22:00;;;;;;;5.20;4.70;;;10.60;99.90;;;;;;5031861;28;20191;-71
2023/12/29 05:24:26;;;;;;;7.57;3.50;;;10.50;99.90;;;;;;5031729;28;20241;-71
2023/12/29 05:26:51;;;;;;;4.63;3.63;;;10.50;99.90;;;;;;5031838;28;20178;-72
2023/12/29 05:29:17;;;;;;;4.50;3.17;;;10.50;99.90;;;;;;5031803;28;20183;-71
2023/12/29 05:31:43;;;;;;;4.20;3.53;;;10.50;99.90;;;;;;5031633;28;20171;-71
2023/12/29 05:34:08;;;;;;;8.23;4.13;;;10.50;99.90;;;;;;5031571;28;20549;-70
2023/12/29 05:36:37;;;;;;;6.30;3.50;;;10.40;99.90;;;;;;5031575;28;20575;-72
2023/12/29 05:39:03;;;;;;;8.40;3.70;;;10.50;99.90;;;;;;5032031;28;20549;-73
2023/12/29 05:41:29;;;;;;;9.47;3.90;;;10.50;99.90;;;;;;5032122;28;20328;-71
2023/12/29 05:43:54;;;;;;;9.77;3.50;;;10.50;99.90;;;;;;5031446;28;20231;-71
2023/12/29 05:46:20;;;;;;;3.83;3.53;;;10.50;99.90;;;;;;5031454;28;20202;-72
2023/12/29 05:48:46;;;;;;;6.60;3.50;;;10.50;99.90;;;;;;5046207;28;20545;-72
2023/12/29 05:51:13;;;;;;;6.40;3.40;;;10.50;99.90;;;;;;5051411;28;20699;-72
2023/12/29 05:53:42;;;;;;;5.93;3.60;;;10.40;99.90;;;;;;5051180;28;20257;-71
2023/12/29 05:56:09;;;;;;;9.30;3.50;;;10.40;99.90;;;;;;5031355;28;20215;-72
2023/12/29 05:58:34;;;;;;;7.73;3.27;;;10.40;99.90;;;;;;5031490;28;20213;-72
2023/12/29 06:01:00;;;;;;;8.57;3.50;;;10.40;99.90;;;;;;5035908;28;20167;-72
2023/12/29 06:03:26;;;;;;;6.07;3.77;;;10.40;99.90;;;;;;5051416;28;20174;-72
2023/12/29 06:05:52;;;;;;;5.53;3.40;;;10.40;99.90;;;;;;5051179;28;20646;-73
2023/12/29 06:08:17;;;;;;;7.63;4.30;;;10.40;99.90;;;;;;5033430;28;20185;-72
2023/12/29 06:10:43;;;;;;;8.57;3.50;;;10.30;99.90;;;;;;5051266;28;20261;-71
2023/12/29 06:13:08;;;;;;;6.10;3.53;;;10.30;99.90;;;;;;5051263;28;20662;-71
2023/12/29 06:15:34;;;;;;;6.30;3.40;;;10.20;99.90;;;;;;5015579;28;20222;-72
2023/12/29 06:18:00;;;;;;;7.60;3.50;;;10.20;99.90;;;;;;5030973;28;20576;-73
2023/12/29 06:20:25;;;;;;;6.97;4.03;;;10.20;99.90;;;;;;5031155;28;20175;-70
2023/12/29 06:22:51;;;;;;;9.27;3.50;;;10.20;99.90;;;;;;5030989;28;20286;-72
2023/12/29 06:25:17;;;;;;;7.07;3.50;;;10.20;99.90;;;;;;5030825;28;20202;-71
2023/12/29 06:27:43;;;;;;;4.67;3.50;;;10.20;99.90;;;;;;5031078;28;20220;-72
2023/12/29 06:30:10;;;;;;;8.63;3.87;;;10.20;99.90;;;;;;5031019;28;20175;-72
2023/12/29 06:32:36;;;;;;;10.47;3.27;;;10.20;99.90;;;;;;5031274;28;20268;-71
2023/12/29 06:35:02;;;;;;;8.87;3.57;;;10.20;99.90;;;;;;5030838;28;20286;-70
2023/12/29 06:37:28;;;;;;;6.50;3.47;;;10.20;99.90;;;;;;5033745;28;20214;-71
2023/12/29 06:39:54;;;;;;;7.20;3.20;;;10.20;99.90;;;;;;5051119;28;20511;-72
2023/12/29 06:42:19;;;;;;;10.73;3.63;;;10.30;99.90;;;;;;5041481;28;20262;-70
2023/12/29 06:44:46;;;;;;;4.13;3.63;;;10.30;99.90;;;;;;5030744;28;20195;-70
2023/12/29 06:47:12;;;;;;;4.50;3.17;;;10.30;99.90;;;;;;5031274;28;20186;-71
2023/12/29 06:49:38;;;;;;;11.67;3.63;;;10.40;99.90;;;;;;5034829;28;20233;-72
2023/12/29 06:52:04;;;;;;;5.90;3.60;;;10.40;99.90;;;;;;5035160;28;20553;-72
2023/12/29 06:54:30;;;;;;;4.67;3.43;;;10.40;99.90;;;;;;5034527;28;20179;-72
2023/12/29 06:56:56;;;;;;;6.07;3.30;;;10.40;99.90;;;;;;5016843;28;20207;-72
2023/12/29 06:59:22;;;;;;;5.57;3.50;;;10.40;99.90;;;;;;5035207;28;20179;-72
2023/12/29 07:01:48;;;;;;;5.37;3.77;;;10.40;99.90;;;;;;5035115;28;20187;-71
2023/12/29 07:04:15;;;;;;;7.37;3.93;;;10.50;99.90;;;;;;5035992;28;20590;-72
2023/12/29 07:06:41;;;;;;;5.37;3.60;;;10.50;99.90;;;;;;5035212;28;20654;-71
2023/12/29 07:09:07;;;;;;;4.63;3.33;;;10.50;99.90;;;;;;5035096;28;20203;-71
2023/12/29 07:11:33;;;;;;;6.90;3.67;;;10.50;99.90;;;;;;5043362;28;20266;-71
2023/12/29 07:13:59;;;;;;;6.90;3.80;;;10.50;99.90;;;;;;5034336;28;20317;-71
2023/12/29 07:16:24;;;;;;;6.80;3.90;;;10.60;99.90;;;;;;5048434;28;20223;-71
2023/12/29 07:18:50;;;;;;;5.03;3.33;;;10.60;99.90;;;;;;5054070;28;20178;-70
2023/12/29 07:21:17;;;;;;;7.13;3.40;;;10.60;99.90;;;;;;5054049;28;20194;-71
2023/12/29 07:23:42;;;;;;;6.77;3.63;;;10.60;99.90;;;;;;5053744;28;20563;-71
2023/12/29 07:26:08;;;;;;;7.63;4.00;;;10.60;99.90;;;;;;5053406;28;20191;-71
2023/12/29 07:28:34;;;;;;;6.37;3.27;;;10.60;99.90;;;;;;5053857;28;20245;-71
2023/12/29 07:31:00;;;;;;;7.40;3.77;;;10.60;99.90;;;;;;5054089;28;20205;-71
2023/12/29 07:33:26;;;;;;;5.10;3.23;;;10.70;99.90;;;;;;5053829;28;20217;-71
2023/12/29 07:35:52;;;;;;;6.27;3.50;;;10.70;99.90;;;;;;5053415;28;20230;-72
2023/12/29 07:38:18;;;;;;;6.10;3.50;;;10.80;99.90;;;;;;5040289;28;20210;-71
2023/12/29 07:40:43;;;;;;;6.20;3.97;;;10.80;99.90;;;;;;5034026;28;20180;-71
2023/12/29 07:43:09;;;;;;;3.83;3.40;;;10.80;99.90;;;;;;5034165;28;20175;-71
2023/12/29 07:45:35;;;;;;;4.63;2.93;;;10.90;99.90;;;;;;5019955;28;20253;-71
2023/12/29 07:48:03;;;;;;;7.50;3.67;;;10.90;99.90;;;;;;5034028;28;20179;-71
2023/12/29 07:50:28;;;;;;;7.17;3.20;;;10.90;99.90;;;;;;5033955;28;20175;-71
2023/12/29 07:52:54;;;;;;;7.57;3.33;;;10.90;99.90;;;;;;5033945;28;20179;-71
2023/12/29 07:55:19;;;;;;;4.57;3.33;;;10.80;99.90;;;;;;5033496;28;20289;-71
2023/12/29 07:57:46;;;;;;;6.60;3.60;;;10.60;99.90;;;;;;5033695;28;20203;-70
2023/12/29 08:00:14;;;;;;;5.40;3.50;;;10.40;99.90;;;;;;5042695;28;20179;-72
2023/12/29 08:02:39;;;;;;;3.50;3.27;;;10.30;99.90;;;;;;5053495;28;20300;-71
2023/12/29 08:05:05;;;;;;;5.30;4.77;;;10.20;99.90;;;;;;5048030;28;20269;-71
2023/12/29 08:07:31;;;;;;;7.60;4.10;;;10.00;99.90;;;;;;5033962;28;20171;-72
2023/12/29 08:09:57;;;;;;;5.00;3.57;;;9.90;99.90;;;;;;5033654;28;20184;-71
2023/12/29 08:12:23;;;;;;;6.37;3.70;;;9.80;99.90;;;;;;5035731;28;20221;-71
2023/12/29 08:14:48;;;;;;;4.33;3.73;;;9.80;99.90;;;;;;5053399;28;20194;-71
2023/12/29 08:17:14;;;;;;;4.03;3.40;;;9.70;99.90;;;;;;5053320;28;20654;-71
2023/12/29 08:19:40;;;;;;;5.47;3.60;;;9.60;99.90;;;;;;5053384;28;20171;-71
2023/12/29 08:22:07;;;;;;;5.77;3.37;;;9.50;99.90;;;;;;5034141;28;20226;-71
2023/12/29 08:24:33;;;;;;;4.43;4.03;;;9.50;99.90;;;;;;5042565;28;20206;-71
2023/12/29 08:26:59;;;;;;;9.50;4.37;;;9.50;99.90;;;;;;5032935;28;20328;-72
2023/12/29 08:29:25;;;;;;;5.60;3.87;;;9.40;99.90;;;;;;5033311;28;20187;-73
2023/12/29 08:31:51;;;;;;;4.10;3.77;;;9.40;99.90;;;;;;5033459;28;20262;-71
2023/12/29 08:34:17;;;;;;;8.53;4.00;;;9.40;99.90;;;;;;5033515;28;20262;-71
2023/12/29 08:36:42;;;;;;;10.97;4.03;;;9.40;99.90;;;;;;5032646;28;20565;-71
2023/12/29 08:39:09;;;;;;;8.43;4.10;;;9.40;99.90;;;;;;5032900;28;20203;-71
2023/12/29 08:41:35;;;;;;;5.90;4.00;;;9.40;99.90;;;;;;5032762;28;20644;-71
2023/12/29 08:44:00;;;;;;;9.83;4.17;;;9.40;99.90;;;;;;5032780;28;20172;-71
2023/12/29 08:46:26;;;;;;;8.43;4.40;;;9.40;99.90;;;;;;5032520;28;20191;-71
2023/12/29 08:48:52;;;;;;;6.00;4.00;;;9.40;99.90;;;;;;5048008;28;20563;-71
2023/12/29 08:51:17;;;;;;;8.23;4.20;;;9.50;99.90;;;;;;5052521;28;20186;-71
2023/12/29 08:53:43;;;;;;;6.13;4.17;;;9.50;99.90;;;;;;5052353;28;20585;-72
2023/12/29 08:56:08;;;;;;;7.90;4.13;;;9.50;99.90;;;;;;5052274;28;20198;-71
2023/12/29 08:58:34;;;;;;;11.73;4.00;;;9.50;99.90;;;;;;5052294;28;20296;-71
2023/12/29 09:01:00;;;;;;;6.97;3.80;;;9.50;99.90;;;;;;5043767;28;20175;-71
2023/12/29 09:03:25;;;;;;;8.57;4.40;;;9.50;99.90;;;;;;5032529;28;20179;-72
2023/12/29 09:05:51;;;;;;;9.70;4.47;;;9.50;99.90;;;;;;5032232;28;20737;-72
2023/12/29 09:08:16;;;;;;;4.47;4.00;;;9.40;99.90;;;;;;5014416;28;20183;-72
2023/12/29 09:10:42;;;;;;;6.57;4.17;;;9.40;99.90;;;;;;5034104;28;20257;-72
2023/12/29 09:13:09;;;;;;;5.77;4.07;;;9.50;99.90;;;;;;5052067;28;20647;-72
2023/12/29 09:15:35;;;;;;;6.30;4.20;;;9.40;99.90;;;;;;5033683;28;20195;-72
2023/12/29 09:18:01;;;;;;;6.70;4.33;;;9.50;99.90;;;;;;5033474;28;20314;-72
2023/12/29 09:20:26;;;;;;;4.60;4.20;;;9.50;99.90;;;;;;5032245;28;20273;-72
2023/12/29 09:22:53;;;;;;;8.00;4.17;;;9.50;99.90;;;;;;5048555;28;20199;-72
2023/12/29 09:25:19;;;;;;;6.60;4.30;;;9.50;99.90;;;;;;5051495;28;20217;-72
2023/12/29 09:27:45;;;;;;;7.47;4.80;;;9.50;99.90;;;;;;5050494;28;20175;-72
2023/12/29 09:30:11;;;;;;;7.93;4.00;;;9.60;99.90;;;;;;5051361;28;20174;-72
2023/12/29 09:32:37;;;;;;;7.07;4.10;;;9.60;99.90;;;;;;5051589;28;20171;-72
2023/12/29 09:35:03;;;;;;;6.70;4.30;;;9.60;99.90;;;;;;5051385;28;20360;-73
2023/12/29 09:37:28;;;;;;;5.70;4.03;;;9.70;99.90;;;;;;5051330;28;20279;-73
2023/12/29 09:39:54;;;;;;;4.00;3.60;;;9.70;99.90;;;;;;5051462;28;20587;-72
2023/12/29 09:42:22;;;;;;;5.20;3.77;;;9.70;99.90;;;;;;5051550;28;20175;-73
2023/12/29 09:44:51;;;;;;;4.37;3.97;;;9.70;99.90;;;;;;5051291;28;20194;-72
2023/12/29 09:47:23;;;;;;;6.80;5.17;;;9.70;99.90;;;;;;5033617;28;20285;-73
2023/12/29 09:49:49;;;;;;;4.80;3.80;;;9.70;99.90;;;;;;5051264;28;20206;-72
2023/12/29 09:52:16;;;;;;;4.43;4.03;;;9.70;99.90;;;;;;5051533;28;20178;-73
2023/12/29 09:54:42;;;;;;;4.70;3.87;;;9.80;99.90;;;;;;5051242;28;20576;-72
2023/12/29 09:57:09;;;;;;;6.13;3.57;;;9.80;99.90;;;;;;5051032;28;20206;-72
2023/12/29 09:59:38;;;;;;;4.30;3.90;;;9.80;99.90;;;;;;5051377;28;20184;-73
2023/12/29 10:02:12;;;;;;;7.90;4.80;;;9.90;99.90;;;;;;5051471;28;20593;-72
2023/12/29 10:04:39;;;;;;;7.40;4.00;;;10.00;99.90;;;;;;5051564;28;20236;-73
2023/12/29 10:07:07;;;;;;;3.73;3.43;;;10.10;99.90;;;;;;5051391;28;20677;-73
2023/12/29 10:09:35;;;;;;;6.30;3.50;;;10.20;99.90;;;;;;5051394;28;20179;-73
2023/12/29 10:12:03;;;;;;;4.43;3.63;;;10.20;99.90;;;;;;5051587;28;20178;-73
2023/12/29 10:14:44;;;;;;;3.83;3.50;;;10.20;99.90;;;;;;5051476;28;20179;-74
2023/12/29 10:17:19;;;;;;;3.97;3.20;;;10.30;99.90;;;;;;5051326;28;20205;-73
2023/12/29 10:20:05;;;;;;;5.70;3.50;;;10.30;99.90;;;;;;5051398;28;20181;-73
2023/12/29 10:22:54;;;;;;;6.63;3.57;;;10.40;99.90;;;;;;5050505;28;20645;-72
2023/12/29 10:25:22;;;;;;;5.43;3.57;;;10.40;99.90;;;;;;5051167;28;20195;-73
2023/12/29 10:27:48;;;;;;;4.70;3.67;;;10.50;99.90;;;;;;5051200;28;20259;-71
2023/12/29 10:30:15;;;;;;;3.73;3.50;;;10.60;99.90;;;;;;5051162;28;20262;-72
2023/12/29 10:32:40;;;;;;;3.83;3.47;;;10.70;99.90;;;;;;5050575;28;20179;-72
2023/12/29 10:35:10;;;;;;;3.57;3.27;;;10.70;99.90;;;;;;5050140;28;20588;-71
2023/12/29 10:37:39;;;;;;;3.80;3.50;;;10.80;99.90;;;;;;5049988;28;20202;-72
2023/12/29 10:40:05;;;;;;;3.33;3.13;;;10.90;99.90;;;;;;5050107;28;20528;-71
2023/12/29 10:42:31;;;;;;;3.50;3.20;;;11.00;99.90;;;;;;5050628;28;20253;-72
2023/12/29 10:45:09;;;;;;;3.47;3.17;;;11.10;99.90;;;;;;5050519;28;20277;-72
2023/12/29 10:47:35;;;;;;;3.20;2.90;;;11.30;99.90;;;;;;5050620;28;20175;-72
2023/12/29 10:50:04;;;;;;;4.50;3.10;;;11.50;99.90;;;;;;5050818;28;20182;-72
2023/12/29 10:52:32;;;;;;;5.13;3.10;;;11.60;99.90;;;;;;5050610;28;20279;-73
2023/12/29 10:55:08;;;;;;;2.77;2.63;;;11.70;99.90;;;;;;5050730;28;20199;-71
2023/12/29 10:57:35;;;;;;;4.43;2.93;;;11.80;99.90;;;;;;5050528;28;20202;-71
2023/12/29 11:00:01;;;;;;;5.10;2.97;;;11.90;99.90;;;;;;5050442;28;20272;-72
2023/12/29 11:02:28;;;;;;;3.10;2.70;;;11.80;99.90;;;;;;5050550;28;20769;-72
2023/12/29 11:05:05;;;;;;;5.33;2.90;;;11.90;99.90;;;;;;5050778;28;20195;-71
2023/12/29 11:07:37;;;;;;;4.20;2.77;;;11.90;99.90;;;;;;5050951;28;20189;-72
2023/12/29 11:10:04;;;;;;;3.63;2.80;;;12.00;99.90;;;;;;5050908;28;20179;-73
2023/12/29 11:12:35;;;;;;;3.17;2.80;;;12.10;99.90;;;;;;5051347;28;20175;-72
2023/12/29 11:15:05;;;;;;;3.30;3.10;;;12.20;99.90;;;;;;5051787;28;20689;-72
2023/12/29 11:17:33;;;;;;;3.50;2.97;;;12.30;99.90;;;;;;5050946;28;20206;-72
2023/12/29 11:20:00;;;;;;;4.43;2.77;;;12.40;99.90;;;;;;5050659;28;20210;-72
2023/12/29 11:22:29;;;;;;;3.07;2.60;;;12.50;99.90;;;;;;5050500;28;20582;-72
2023/12/29 11:24:54;;;;;;;3.90;2.70;;;12.70;1.00;;;;;;5050713;28;20241;-71
2023/12/29 11:27:22;;;;;;;3.63;2.90;;;12.90;1.00;;;;;;5050407;28;20183;-72
2023/12/29 11:29:47;;;;;;;3.17;2.80;;;13.00;1.00;;;;;;5050281;28;20573;-71
2023/12/29 11:32:20;;;;;;;5.67;2.93;;;12.80;1.00;;;;;;5050036;28;20186;-71
2023/12/29 11:35:03;;;;;;;4.03;2.70;;;12.80;1.00;;;;;;5053301;28;20198;-71
2023/12/29 11:37:48;;;;;;;6.90;3.20;;;12.80;1.00;;;;;;5036805;28;20203;-72
2023/12/29 11:40:28;;;;;;;3.40;2.60;;;12.90;1.00;;;;;;5053933;28;20201;-71
2023/12/29 11:42:57;;;;;;;6.00;2.77;;;12.90;1.00;;;;;;5054354;28;20170;-71
2023/12/29 11:45:31;;;;;;;3.53;2.97;;;12.90;99.90;;;;;;5053857;28;20273;-71
2023/12/29 11:48:00;;;;;;;3.17;2.70;;;12.90;99.90;;;;;;5053534;28;20674;-71
2023/12/29 11:50:37;;;;;;;3.73;2.70;;;12.90;99.90;;;;;;5053606;28;20179;-72
2023/12/29 11:53:03;;;;;;;3.23;2.90;;;12.80;99.90;;;;;;5053694;28;20274;-71
2023/12/29 11:55:30;;;;;;;4.67;2.67;;;12.70;99.90;;;;;;5053429;28;20238;-72
2023/12/29 11:57:56;;;;;;;3.37;3.10;;;12.60;1.00;;;;;;5053721;28;20580;-71
2023/12/29 12:00:46;;;;;;;2.63;2.43;;;12.60;1.00;;;;;;5053548;28;20167;-71
2023/12/29 12:03:31;;;;;;;2.83;2.53;;;12.60;1.00;;;;;;5053529;28;20190;-71
2023/12/29 12:05:58;;;;;;;2.90;2.70;;;12.60;99.90;;;;;;5053213;28;20187;-71
2023/12/29 12:08:35;;;;;;;3.13;2.80;;;12.60;99.90;;;;;;5053548;28;20237;-71
2023/12/29 12:11:29;;;;;;;3.10;2.80;;;12.60;99.90;;;;;;5053520;28;20571;-70
2023/12/29 12:13:55;;;;;;;4.73;2.80;;;12.60;99.90;;;;;;5035120;28;20305;-71
2023/12/29 12:16:46;;;;;;;4.63;3.20;;;12.50;99.90;;;;;;5053204;28;20313;-72
2023/12/29 12:19:14;;;;;;;3.23;2.93;;;12.40;99.90;;;;;;5053201;28;20179;-71
2023/12/29 12:21:40;;;;;;;2.80;2.60;;;12.30;1.00;;;;;;5053293;28;20186;-72
2023/12/29 12:24:07;;;;;;;4.27;3.03;;;12.20;1.00;;;;;;5053542;28;20546;-72
2023/12/29 12:26:34;;;;;;;4.10;2.80;;;12.20;1.00;;;;;;5053284;28;20195;-71
2023/12/29 12:29:00;;;;;;;4.27;2.53;;;12.10;1.00;;;;;;5053463;28;20202;-71
2023/12/29 12:31:26;;;;;;;4.90;3.40;;;12.10;1.00;;;;;;5053850;28;20680;-72
2023/12/29 12:34:02;;;;;;;3.60;3.33;;;12.00;1.00;;;;;;5052927;28;20258;-72
2023/12/29 12:36:28;;;;;;;4.67;3.00;;;12.00;4.40;;;;;;5053323;28;20222;-71
2023/12/29 12:38:55;;;;;;;4.50;3.47;;;12.00;1.00;;;;;;5053513;28;20194;-71
2023/12/29 12:41:22;;;;;;;3.23;2.87;;;11.90;78.90;;;;;;5052608;28;20281;-72
2023/12/29 12:44:03;;;;;;;4.07;3.20;;;11.90;34.50;;;;;;5052404;28;20280;-72
2023/12/29 12:46:36;;;;;;;2.80;2.47;;;11.90;99.90;;;;;;5051959;28;20719;-71
2023/12/29 12:49:03;;;;;;;3.97;3.03;;;12.00;99.90;;;;;;5052707;28;20198;-72